Historique des mesures à Cassis (13260), France
Quotidien Résumé Juin 6, 2022 Unités:  Métrique/US    US   Métrique
Quotidien Hebdomadaire Mensuel Annuel
  Maximum: Minimum: Moyenne:
Température: 63.7 °F /  17.6 °C 51.4 °F /  10.8 °C 55.9 °F /  13.3 °C
Point de rosée: 54.3 °F /  12.4 °C 37.8 °F /  3.2 °C 46.8 °F /  8.2 °C
Humidité: 84% 58% 71%
Vitesse du vent: 8.5mph /  13.7km/h - 2.3mph /  3.7km/h
Rafales: 12.7mph /  20.5km/h - -
Vent- - WSW
Pression: 30.1 in /  1020.5 hPa 30.1 in /  1017.6 hPa -
Précipitations: 0 in /  0.0 mm    
Historical Graphs
 
 
Mesures pour : Juin 6, 2022
Heure Temperature Point de rosée Pression Vent Vitesse du vent Rafales Humidité Pluie (par heure)
00:10 52.7 °F /  11.5 °C 38.7 °F /  3.7 °C 30.1in /  1017.7hPa North 4.2mph /  6.8km/h 6.5mph /  10.4km/h 59% 0in /  0.0mm
01:10 52.3 °F /  11.3 °C 37.9 °F /  3.3 °C 30.1in /  1017.6hPa NNW 6.7mph /  10.8km/h 12.7mph /  20.5km/h 58% 0in /  0.0mm
02:10 52.2 °F /  11.2 °C 37.8 °F /  3.2 °C 30.1in /  1017.6hPa NNW 8.1mph /  13km/h 8.1mph /  13km/h 58% 0in /  0.0mm
03:10 51.6 °F /  10.9 °C 37.8 °F /  3.2 °C 30.1in /  1017.7hPa NNW 2.5mph /  4km/h 6.5mph /  10.4km/h 59% 0in /  0.0mm
04:10 51.6 °F /  10.9 °C 38.1 °F /  3.4 °C 30.1in /  1017.8hPa NW 6.3mph /  10.1km/h 7.4mph /  11.9km/h 60% 0in /  0.0mm
05:10 51.6 °F /  10.9 °C 39.4 °F /  4.1 °C 30.1in /  1017.7hPa WNW 2.2mph /  3.6km/h 5.2mph /  8.3km/h 63% 0in /  0.0mm
06:10 51.4 °F /  10.8 °C 41.2 °F /  5.1 °C 30.1in /  1017.7hPa Calm   3.8mph /  6.1km/h 68% 0in /  0.0mm
07:10 51.6 °F /  10.9 °C 43 °F /  6.1 °C 30.1in /  1017.7hPa NNW 1.8mph /  2.9km/h 4.9mph /  7.9km/h 72% 0in /  0.0mm
08:10 52.5 °F /  11.4 °C 44.8 °F /  7.1 °C 30.1in /  1018.1hPa Calm   1.8mph /  2.9km/h 75% 0in /  0.0mm
09:10 56.3 °F /  13.5 °C 47.7 °F /  8.7 °C 30.1in /  1018.6hPa Calm     73% 0in /  0.0mm
10:10 58.8 °F /  14.9 °C 49.5 °F /  9.7 °C 30.1in /  1018.8hPa Calm   6mph /  9.7km/h 71% 0in /  0.0mm
11:10 61.5 °F /  16.4 °C 52.2 °F /  11.2 °C 30.1in /  1019.1hPa SE 1.1mph /  1.8km/h 7mph /  11.2km/h 71% 0in /  0.0mm
12:10 62.8 °F /  17.1 °C 53.2 °F /  11.8 °C 30.1in /  1019.2hPa SSE 4.9mph /  7.9km/h 6.3mph /  10.1km/h 71% 0in /  0.0mm
13:10 63.7 °F /  17.6 °C 54.1 °F /  12.3 °C 30.1in /  1018.7hPa Calm   4.9mph /  7.9km/h 71% 0in /  0.0mm
14:10 63.1 °F /  17.3 °C 54.3 °F /  12.4 °C 30.1in /  1018.2hPa Calm   6.5mph /  10.4km/h 73% 0in /  0.0mm
15:10 62.8 °F /  17.1 °C 54.3 °F /  12.4 °C 30.1in /  1017.9hPa Calm   2.7mph /  4.3km/h 74% 0in /  0.0mm
16:10 62.2 °F /  16.8 °C 53.8 °F /  12.1 °C 30.1in /  1018.0hPa Calm   3.8mph /  6.1km/h 74% 0in /  0.0mm
17:10 60.1 °F /  15.6 °C 52.9 °F /  11.6 °C 30.1in /  1018.4hPa Calm   2.2mph /  3.6km/h 77% 0in /  0.0mm
18:10 57.7 °F /  14.3 °C 51.6 °F /  10.9 °C 30.1in /  1019.1hPa Calm   2.5mph /  4km/h 80% 0in /  0.0mm
19:10 55.2 °F /  12.9 °C 49.5 °F /  9.7 °C 30.1in /  1019.1hPa NNW 2.5mph /  4km/h 5.6mph /  9km/h 81% 0in /  0.0mm
20:10 54.1 °F /  12.3 °C 48.2 °F /  9 °C 30.1in /  1019.9hPa NNW 8.5mph /  13.7km/h 9.6mph /  15.5km/h 80% 0in /  0.0mm
21:10 53.2 °F /  11.8 °C 47.3 °F /  8.5 °C 30.1in /  1020.2hPa Calm     80% 0in /  0.0mm
22:10 52.7 °F /  11.5 °C 47.1 °F /  8.4 °C 30.1in /  1020.3hPa North 2.5mph /  4km/h 4.5mph /  7.2km/h 81% 0in /  0.0mm
23:10 52.5 °F /  11.4 °C 47.8 °F /  8.8 °C 30.1in /  1020.5hPa NNW 4mph /  6.5km/h 6.5mph /  10.4km/h 84% 0in /  0.0mm
Observations météo à CASSIS
WU-History script by Weather Underground - 2 mb